首页
METAR-TAF:

METAR-TAF

机场 :

布爾諾, 捷克共和国

纬度: 49-09N, 经度: 016-42E, 海拔: 241米

当前天气观测

该预报发布于44分钟前的20:30 UTC
风速4节,风向西北
温度 10°C
湿度 43%
气压 1013 hPa
能见度10公里或以上
1500米以下无云,无积雨云

METAR: LKTB 282030Z 32004KT CAVOK 10/M02 Q1013 NOSIG

时间: 22:14 (21:14 UTC)

预报

该预报发布于4小时和14分钟前的17:00 UTC
预报有效从28日的 18点(UTC)到 30日的 00点(UTC)
风速2节,风向多变
能见度10公里或以上
1500米以下无云,无积雨云
成为
从 28日的 21点(UTC)到 29日的 00点(UTC)
风速10节,风向北转西北
能见度10公里或以上
多云层高于3500英尺
短暂存在
从 29日的 12点(UTC)到 30日的 00点(UTC)
风速12节,风向,有时为24节阵风

TAF: LKTB 281700Z 2818/3000 VRB02KT CAVOK BECMG 2821/2900 33010KT 9999 BKN035 TEMPO 2912/3000 35012G24KT

超过4000个机场的气象观测和天气预报(METAR&TAF报告)。

可查询的气象台以黄色和红色小点在地图上表示。

将鼠标移到小点上方,可查看气象台名称。

然后点击查看天气观测和预报。

如需切换地图:点击带黑十字的绿色按钮放大地图;点击带横线的绿色按钮缩小地图;或者点击绿色箭头查看邻近地区的地图。


METAR-TAF: